createdAt,value
2022-11-15T00:01:17.751Z,12.47
2022-11-15T00:04:06.779Z,10.20
2022-11-15T00:06:56.913Z,10.20
2022-11-15T00:09:46.198Z,10.67
2022-11-15T00:12:35.154Z,9.20
2022-11-15T00:15:23.963Z,10.63
2022-11-15T00:18:15.029Z,11.73
2022-11-15T00:21:07.566Z,10.50
2022-11-15T00:23:58.139Z,10.90
2022-11-15T00:26:46.944Z,10.77
2022-11-15T00:29:35.690Z,10.23
2022-11-15T00:32:24.453Z,8.53
2022-11-15T00:35:13.226Z,8.90
2022-11-15T00:38:02.083Z,9.70
2022-11-15T00:40:52.200Z,8.57
2022-11-15T00:43:44.300Z,8.87
2022-11-15T00:46:33.127Z,8.70
2022-11-15T00:49:21.879Z,9.33
2022-11-15T00:52:10.796Z,12.23
2022-11-15T00:54:59.590Z,10.60
2022-11-15T00:57:49.807Z,8.83
2022-11-15T01:00:38.649Z,9.33
2022-11-15T01:03:27.577Z,10.70
2022-11-15T01:06:16.473Z,9.40
2022-11-15T01:09:05.839Z,9.70
2022-11-15T01:11:54.682Z,13.17
2022-11-15T01:14:44.838Z,9.10
2022-11-15T01:17:33.940Z,9.37
2022-11-15T01:20:22.779Z,10.50
2022-11-15T01:23:11.705Z,8.50
2022-11-15T01:26:01.357Z,8.83
2022-11-15T01:28:50.149Z,10.50
2022-11-15T01:31:40.230Z,9.03
2022-11-15T01:34:29.106Z,10.53
2022-11-15T01:37:17.908Z,8.23
2022-11-15T01:40:07.175Z,8.73
2022-11-15T01:42:55.955Z,8.27
2022-11-15T01:45:44.903Z,9.30
2022-11-15T01:48:36.539Z,8.03
2022-11-15T01:51:27.094Z,10.07
2022-11-15T01:54:18.005Z,11.00
2022-11-15T01:57:09.257Z,9.03
2022-11-15T01:59:58.662Z,11.83
2022-11-15T02:02:47.482Z,8.80
2022-11-15T02:05:37.871Z,11.77
2022-11-15T02:08:26.673Z,9.00
2022-11-15T02:11:15.511Z,7.30
2022-11-15T02:14:05.036Z,9.47
2022-11-15T02:16:57.803Z,8.93
2022-11-15T02:20:03.459Z,9.23
2022-11-15T02:23:02.946Z,9.93
2022-11-15T02:25:57.906Z,7.20
2022-11-15T02:28:53.834Z,6.53
2022-11-15T02:31:48.726Z,6.93
2022-11-15T02:34:41.593Z,7.10
2022-11-15T02:37:37.509Z,6.33
2022-11-15T02:40:31.303Z,7.30
2022-11-15T02:43:42.042Z,10.93
2022-11-15T02:46:52.903Z,7.00
2022-11-15T02:49:44.103Z,6.80
2022-11-15T02:52:32.846Z,7.70
2022-11-15T02:55:28.593Z,7.10
2022-11-15T02:58:25.503Z,7.53
2022-11-15T03:01:17.283Z,9.13
2022-11-15T03:04:10.834Z,8.83
2022-11-15T03:07:04.805Z,8.10
2022-11-15T03:09:55.551Z,7.43
2022-11-15T03:12:46.361Z,9.83
2022-11-15T03:15:39.332Z,9.40
2022-11-15T03:18:30.766Z,7.10
2022-11-15T03:21:21.494Z,8.00
2022-11-15T03:24:11.614Z,8.10
2022-11-15T03:27:01.839Z,8.77
2022-11-15T03:29:53.049Z,8.90
2022-11-15T03:32:44.618Z,8.00
2022-11-15T03:35:35.132Z,7.93
2022-11-15T03:38:26.023Z,7.70
2022-11-15T03:41:18.903Z,11.67
2022-11-15T03:44:12.698Z,8.93
2022-11-15T03:47:04.593Z,8.57
2022-11-15T03:49:54.989Z,10.90
2022-11-15T03:52:44.277Z,9.13
2022-11-15T03:55:34.523Z,7.70
2022-11-15T03:58:24.633Z,8.60
2022-11-15T04:01:13.434Z,9.60
2022-11-15T04:04:02.218Z,9.10
2022-11-15T04:06:51.053Z,10.60
2022-11-15T04:09:59.860Z,14.20
2022-11-15T04:12:49.155Z,10.40
2022-11-15T04:15:39.322Z,10.17
2022-11-15T04:18:28.073Z,11.27
2022-11-15T04:21:34.463Z,10.00
2022-11-15T04:24:23.256Z,13.20
2022-11-15T04:27:13.679Z,7.70
2022-11-15T04:30:02.451Z,9.27
2022-11-15T04:32:52.586Z,8.13
2022-11-15T04:35:41.370Z,8.57
2022-11-15T04:38:30.171Z,8.90
2022-11-15T04:41:18.956Z,7.90
2022-11-15T04:44:07.705Z,7.13
2022-11-15T04:46:56.472Z,7.40
2022-11-15T04:49:46.601Z,7.33
2022-11-15T04:52:35.393Z,6.80
2022-11-15T04:55:24.168Z,8.23
2022-11-15T04:58:12.923Z,7.07
2022-11-15T05:01:08.827Z,7.43
2022-11-15T05:04:15.495Z,6.77
2022-11-15T05:07:05.992Z,7.43
2022-11-15T05:09:54.789Z,6.17
2022-11-15T05:12:43.573Z,6.00
2022-11-15T05:15:32.329Z,6.30
2022-11-15T05:18:23.810Z,9.70
2022-11-15T05:21:13.780Z,8.97
2022-11-15T05:24:04.079Z,7.53
2022-11-15T05:26:52.837Z,6.37
2022-11-15T05:29:41.617Z,7.83
2022-11-15T05:32:30.737Z,6.77
2022-11-15T05:35:22.727Z,7.10
2022-11-15T05:38:11.531Z,6.53
2022-11-15T05:41:02.178Z,8.50
2022-11-15T05:43:51.467Z,6.57
2022-11-15T05:46:41.965Z,6.73
2022-11-15T05:49:32.922Z,6.57
2022-11-15T05:52:24.857Z,6.00
2022-11-15T05:55:13.713Z,7.87
2022-11-15T05:58:03.874Z,6.83
2022-11-15T06:00:52.752Z,6.20
2022-11-15T06:03:41.509Z,7.10
2022-11-15T06:06:30.305Z,8.27
2022-11-15T06:09:19.090Z,7.07
2022-11-15T06:12:08.153Z,6.67
2022-11-15T06:14:58.256Z,7.17
2022-11-15T06:17:47.058Z,8.70
2022-11-15T06:20:35.871Z,7.30
2022-11-15T06:23:26.240Z,6.43
2022-11-15T06:26:15.175Z,7.87
2022-11-15T06:29:05.233Z,6.67
2022-11-15T06:31:55.387Z,10.43
2022-11-15T06:34:44.144Z,8.10
2022-11-15T06:37:32.931Z,6.63
2022-11-15T06:40:21.885Z,5.90
2022-11-15T06:43:10.695Z,5.43
2022-11-15T06:46:00.469Z,7.17
2022-11-15T06:48:52.873Z,4.20
2022-11-15T06:51:41.702Z,6.40
2022-11-15T06:54:30.454Z,5.70
2022-11-15T06:57:19.266Z,5.97
2022-11-15T07:00:08.594Z,8.47
2022-11-15T07:02:57.388Z,6.50
2022-11-15T07:05:54.598Z,6.20
2022-11-15T07:08:43.522Z,11.90
2022-11-15T07:11:32.408Z,4.70
2022-11-15T07:14:21.177Z,5.03
2022-11-15T07:17:09.947Z,5.83
2022-11-15T07:19:58.740Z,5.43
2022-11-15T07:22:48.856Z,4.73
2022-11-15T07:25:37.617Z,5.07
2022-11-15T07:28:26.680Z,4.43
2022-11-15T07:31:15.566Z,3.93
2022-11-15T07:34:04.303Z,4.37
2022-11-15T07:36:53.083Z,4.70
2022-11-15T07:39:43.259Z,4.87
2022-11-15T07:42:51.569Z,4.57
2022-11-15T07:45:43.485Z,3.57
2022-11-15T07:48:43.209Z,5.70
2022-11-15T07:51:33.025Z,3.10
2022-11-15T07:54:21.762Z,4.67
2022-11-15T07:57:11.845Z,3.23
2022-11-15T08:00:00.603Z,2.43
2022-11-15T08:02:49.475Z,6.73
2022-11-15T08:05:38.812Z,2.73
2022-11-15T08:08:27.571Z,3.40
2022-11-15T08:11:16.330Z,2.07
2022-11-15T08:14:06.467Z,2.07
2022-11-15T08:16:55.278Z,2.83
2022-11-15T08:19:44.020Z,6.93
2022-11-15T08:22:33.119Z,2.50
2022-11-15T08:25:21.903Z,2.20
2022-11-15T08:28:12.831Z,1.53
2022-11-15T08:31:02.942Z,2.63
2022-11-15T08:33:51.739Z,3.63
2022-11-15T08:36:45.640Z,1.60
2022-11-15T08:39:35.257Z,1.77
2022-11-15T08:42:24.042Z,1.27
2022-11-15T08:45:12.819Z,2.60
2022-11-15T08:48:03.347Z,1.77
2022-11-15T08:50:55.934Z,2.50
2022-11-15T08:53:44.988Z,2.50
2022-11-15T08:56:33.850Z,1.50
2022-11-15T08:59:22.622Z,3.07
2022-11-15T09:02:14.075Z,1.40
2022-11-15T09:05:04.210Z,1.60
2022-11-15T09:07:55.546Z,1.77
2022-11-15T09:10:44.302Z,1.53
2022-11-15T09:13:33.052Z,1.47
2022-11-15T09:16:21.806Z,1.97
2022-11-15T09:19:11.914Z,3.97
2022-11-15T09:22:02.171Z,3.23
2022-11-15T09:24:50.969Z,1.40
2022-11-15T09:27:39.763Z,1.63
2022-11-15T09:30:28.552Z,1.73
2022-11-15T09:33:17.316Z,2.67
2022-11-15T09:36:06.993Z,1.77
2022-11-15T09:38:57.150Z,4.40
2022-11-15T09:42:09.987Z,2.67
2022-11-15T09:45:04.069Z,1.77
2022-11-15T09:48:02.765Z,2.20
2022-11-15T09:50:52.485Z,1.50
2022-11-15T09:54:24.136Z,1.17
2022-11-15T09:56:55.740Z,2.00
2022-11-15T09:59:50.087Z,2.90
2022-11-15T10:02:49.836Z,3.70
2022-11-15T10:05:40.394Z,1.97
2022-11-15T10:08:40.126Z,1.10
2022-11-15T10:11:38.972Z,2.27
2022-11-15T10:14:31.815Z,1.43
2022-11-15T10:17:29.625Z,1.50
2022-11-15T10:20:20.460Z,1.10
2022-11-15T10:23:10.362Z,2.93
2022-11-15T10:26:06.457Z,1.70
2022-11-15T10:28:55.853Z,1.93
2022-11-15T10:31:46.028Z,1.53
2022-11-15T10:34:38.108Z,2.07
2022-11-15T10:37:31.337Z,3.90
2022-11-15T10:40:22.030Z,4.30
2022-11-15T10:43:16.347Z,1.93
2022-11-15T10:46:45.099Z,1.67
2022-11-15T10:49:33.764Z,2.10
2022-11-15T10:52:23.081Z,3.57
2022-11-15T10:55:24.405Z,1.63
2022-11-15T10:58:23.208Z,1.73
2022-11-15T11:01:13.634Z,1.43
2022-11-15T11:04:03.202Z,1.33
2022-11-15T11:06:54.334Z,1.97
2022-11-15T11:09:43.784Z,1.17
2022-11-15T11:12:33.482Z,3.40
2022-11-15T11:15:23.725Z,2.80
2022-11-15T11:18:17.817Z,1.13
2022-11-15T11:21:12.711Z,1.67
2022-11-15T11:24:08.504Z,1.53
2022-11-15T11:27:03.022Z,1.20
2022-11-15T11:29:57.888Z,1.83
2022-11-15T11:32:58.565Z,1.30
2022-11-15T11:35:53.193Z,2.27
2022-11-15T11:38:58.834Z,1.60
2022-11-15T11:41:56.259Z,1.10
2022-11-15T11:44:50.660Z,1.45
2022-11-15T11:47:42.147Z,1.50
2022-11-15T11:50:30.959Z,2.10
2022-11-15T11:53:28.240Z,1.10
2022-11-15T11:56:21.014Z,2.08
2022-11-15T11:59:15.510Z,3.45
2022-11-15T12:02:05.301Z,1.60
2022-11-15T12:04:55.605Z,1.20
2022-11-15T12:07:45.974Z,2.45
2022-11-15T12:10:36.150Z,1.58
2022-11-15T12:13:26.960Z,2.58
2022-11-15T12:16:19.401Z,1.20
2022-11-15T12:19:10.434Z,2.73
2022-11-15T12:22:02.250Z,1.40
2022-11-15T12:24:53.084Z,1.30
2022-11-15T12:27:44.679Z,1.20
2022-11-15T12:30:43.024Z,1.47
2022-11-15T12:33:38.784Z,0.90
2022-11-15T12:36:37.565Z,1.10
2022-11-15T12:39:41.297Z,1.00
2022-11-15T12:42:42.478Z,2.30
2022-11-15T12:45:32.559Z,1.00
2022-11-15T12:48:49.927Z,1.40
2022-11-15T12:51:56.464Z,1.63
2022-11-15T12:54:53.276Z,2.17
2022-11-15T12:57:43.050Z,1.30
2022-11-15T13:00:40.885Z,4.30
2022-11-15T13:03:30.872Z,1.40
2022-11-15T13:06:39.278Z,4.18
2022-11-15T13:09:46.649Z,1.30
2022-11-15T13:12:52.469Z,1.10
2022-11-15T13:15:55.264Z,1.40
2022-11-15T13:18:44.027Z,1.30
2022-11-15T13:21:51.062Z,2.87
2022-11-15T13:24:41.913Z,1.43
2022-11-15T13:27:31.299Z,1.40
2022-11-15T13:30:22.401Z,2.00
2022-11-15T13:33:12.799Z,1.33
2022-11-15T13:36:02.990Z,1.17
2022-11-15T13:38:59.248Z,1.00
2022-11-15T13:41:50.970Z,1.00
2022-11-15T13:44:39.887Z,1.58
2022-11-15T13:47:29.562Z,1.50
2022-11-15T13:50:18.484Z,2.30
2022-11-15T13:53:07.622Z,2.03
2022-11-15T13:55:57.127Z,1.23
2022-11-15T13:58:47.323Z,3.93
2022-11-15T14:01:36.141Z,2.13
2022-11-15T14:04:26.163Z,1.90
2022-11-15T14:07:18.970Z,1.10
2022-11-15T14:10:20.197Z,1.70
2022-11-15T14:13:14.556Z,3.87
2022-11-15T14:16:18.012Z,1.03
2022-11-15T14:19:07.167Z,2.10
2022-11-15T14:22:16.777Z,6.47
2022-11-15T14:25:17.940Z,2.30
2022-11-15T14:28:27.406Z,1.80
2022-11-15T14:31:17.575Z,1.20
2022-11-15T14:34:06.348Z,1.43
2022-11-15T14:36:55.107Z,4.33
2022-11-15T14:39:43.873Z,2.40
2022-11-15T14:42:32.653Z,2.37
2022-11-15T14:45:22.912Z,3.80
2022-11-15T14:48:13.103Z,2.53
2022-11-15T14:51:01.931Z,3.50
2022-11-15T14:53:51.501Z,5.33
2022-11-15T14:56:40.233Z,2.63
2022-11-15T14:59:28.971Z,1.43
2022-11-15T15:02:19.290Z,2.53
2022-11-15T15:05:16.220Z,2.77
2022-11-15T15:08:05.112Z,4.03
2022-11-15T15:10:53.990Z,3.33
2022-11-15T15:13:42.786Z,2.90
2022-11-15T15:16:31.535Z,2.50
2022-11-15T15:19:20.280Z,2.87
2022-11-15T15:22:12.037Z,2.87
2022-11-15T15:25:00.825Z,6.10
2022-11-15T15:27:49.618Z,9.03
2022-11-15T15:30:38.399Z,3.07
2022-11-15T15:33:27.171Z,2.70
2022-11-15T15:36:16.672Z,3.37
2022-11-15T15:39:06.769Z,4.77
2022-11-15T15:41:57.476Z,6.27
2022-11-15T15:44:46.400Z,4.90
2022-11-15T15:47:35.212Z,3.87
2022-11-15T15:50:24.891Z,4.40
2022-11-15T15:53:14.393Z,4.60
2022-11-15T15:56:04.537Z,2.20
2022-11-15T15:58:53.534Z,2.70
2022-11-15T16:01:42.317Z,3.10
2022-11-15T16:04:31.164Z,3.00
2022-11-15T16:07:25.413Z,4.20
2022-11-15T16:10:19.673Z,4.43
2022-11-15T16:13:10.591Z,3.93
2022-11-15T16:15:59.431Z,3.80
2022-11-15T16:18:48.206Z,3.60
2022-11-15T16:21:37.002Z,5.43
2022-11-15T16:24:25.801Z,5.00
2022-11-15T16:27:16.116Z,2.77
2022-11-15T16:30:06.767Z,3.53
2022-11-15T16:32:55.657Z,3.03
2022-11-15T16:35:44.420Z,3.10
2022-11-15T16:38:33.410Z,2.90
2022-11-15T16:41:22.319Z,4.13
2022-11-15T16:44:11.276Z,3.03
2022-11-15T16:47:01.399Z,5.17
2022-11-15T16:49:50.337Z,3.50
2022-11-15T16:52:39.080Z,4.20
2022-11-15T16:55:28.758Z,4.07
2022-11-15T16:58:17.489Z,3.90
2022-11-15T17:01:18.587Z,4.20
2022-11-15T17:04:13.251Z,4.53
2022-11-15T17:07:02.090Z,3.70
2022-11-15T17:09:50.838Z,3.43
2022-11-15T17:12:39.760Z,2.53
2022-11-15T17:15:28.534Z,3.23
2022-11-15T17:18:17.287Z,7.40
2022-11-15T17:21:08.501Z,3.90
2022-11-15T17:23:57.245Z,5.57
2022-11-15T17:26:46.059Z,3.10
2022-11-15T17:29:34.893Z,4.40
2022-11-15T17:32:23.685Z,3.53
2022-11-15T17:35:15.651Z,3.07
2022-11-15T17:38:06.117Z,5.13
2022-11-15T17:41:05.121Z,3.17
2022-11-15T17:43:54.020Z,3.53
2022-11-15T17:46:42.774Z,3.63
2022-11-15T17:49:31.523Z,3.67
2022-11-15T17:52:20.289Z,3.47
2022-11-15T17:55:11.007Z,5.00
2022-11-15T17:57:59.786Z,5.50
2022-11-15T18:00:49.018Z,5.17
2022-11-15T18:03:38.019Z,9.63
2022-11-15T18:06:26.845Z,12.73
2022-11-15T18:09:15.585Z,4.17
2022-11-15T18:12:05.950Z,3.87
2022-11-15T18:14:54.724Z,4.83
2022-11-15T18:17:43.470Z,4.50
2022-11-15T18:20:32.244Z,4.67
2022-11-15T18:23:21.005Z,6.30
2022-11-15T18:26:11.589Z,6.03
2022-11-15T18:29:05.640Z,5.07
2022-11-15T18:31:56.137Z,5.97
2022-11-15T18:34:44.998Z,5.00
2022-11-15T18:37:33.740Z,5.30
2022-11-15T18:40:22.472Z,10.50
2022-11-15T18:43:11.265Z,9.60
2022-11-15T18:46:05.016Z,8.90
2022-11-15T18:48:54.523Z,9.00
2022-11-15T18:51:43.307Z,6.37
2022-11-15T18:54:32.073Z,4.37
2022-11-15T18:57:20.833Z,7.57
2022-11-15T19:00:10.302Z,5.33
2022-11-15T19:03:00.421Z,3.77
2022-11-15T19:05:49.149Z,6.07
2022-11-15T19:08:38.482Z,4.77
2022-11-15T19:11:28.821Z,4.80
2022-11-15T19:14:18.343Z,4.20
2022-11-15T19:17:07.085Z,4.27
2022-11-15T19:19:57.137Z,4.20
2022-11-15T19:22:45.900Z,4.53
2022-11-15T19:25:34.661Z,3.60
2022-11-15T19:28:23.462Z,4.70
2022-11-15T19:31:13.151Z,5.50
2022-11-15T19:34:02.957Z,4.93
2022-11-15T19:36:53.071Z,3.30
2022-11-15T19:39:41.802Z,2.93
2022-11-15T19:42:30.575Z,5.17
2022-11-15T19:45:19.345Z,4.30
2022-11-15T19:48:08.361Z,3.20
2022-11-15T19:51:01.178Z,2.70
2022-11-15T19:53:51.659Z,3.60
2022-11-15T19:56:40.748Z,3.33
2022-11-15T19:59:29.526Z,3.20
2022-11-15T20:02:18.348Z,4.70
2022-11-15T20:05:07.253Z,3.10
2022-11-15T20:07:55.997Z,3.27
2022-11-15T20:10:48.338Z,4.20
2022-11-15T20:13:37.184Z,2.60
2022-11-15T20:16:26.269Z,3.33
2022-11-15T20:19:15.833Z,2.63
2022-11-15T20:22:04.625Z,3.30
2022-11-15T20:24:53.398Z,4.20
2022-11-15T20:27:43.527Z,4.47
2022-11-15T20:30:32.325Z,4.30
2022-11-15T20:33:22.405Z,13.20
2022-11-15T20:36:12.496Z,3.77
2022-11-15T20:39:01.659Z,3.70
2022-11-15T20:41:50.473Z,3.70
2022-11-15T20:44:40.668Z,4.87
2022-11-15T20:47:31.698Z,3.67
2022-11-15T20:50:41.053Z,4.50
2022-11-15T20:53:31.564Z,3.87
2022-11-15T20:56:21.760Z,7.07
2022-11-15T20:59:10.547Z,4.60
2022-11-15T21:02:01.010Z,3.13
2022-11-15T21:04:49.905Z,4.40
2022-11-15T21:07:38.748Z,5.47
2022-11-15T21:10:45.439Z,3.33
2022-11-15T21:13:34.191Z,4.07
2022-11-15T21:16:23.732Z,4.27
2022-11-15T21:19:13.840Z,4.90
2022-11-15T21:22:03.070Z,5.00
2022-11-15T21:24:51.912Z,6.07
2022-11-15T21:27:40.708Z,4.33
2022-11-15T21:30:29.535Z,5.30
2022-11-15T21:33:18.350Z,5.10
2022-11-15T21:36:09.158Z,3.60
2022-11-15T21:38:58.000Z,4.30
2022-11-15T21:41:46.751Z,5.97
2022-11-15T21:44:35.533Z,4.70
2022-11-15T21:47:24.297Z,4.60
2022-11-15T21:50:13.043Z,5.07
2022-11-15T21:53:03.109Z,5.63
2022-11-15T21:55:51.895Z,4.23
2022-11-15T21:58:40.847Z,4.97
2022-11-15T22:01:47.662Z,4.27
2022-11-15T22:04:36.655Z,4.43
2022-11-15T22:07:25.431Z,5.10
2022-11-15T22:10:15.631Z,3.80
2022-11-15T22:13:04.389Z,3.83
2022-11-15T22:15:53.926Z,4.23
2022-11-15T22:18:42.709Z,5.33
2022-11-15T22:21:31.483Z,4.03
2022-11-15T22:24:21.446Z,4.10
2022-11-15T22:27:11.565Z,4.10
2022-11-15T22:30:00.331Z,4.13
2022-11-15T22:32:49.191Z,3.30
2022-11-15T22:35:38.215Z,4.53
2022-11-15T22:38:27.661Z,4.37
2022-11-15T22:41:16.410Z,4.50
2022-11-15T22:44:06.776Z,3.50
2022-11-15T22:46:55.538Z,4.93
2022-11-15T22:49:44.507Z,2.70
2022-11-15T22:52:33.343Z,3.70
2022-11-15T22:55:22.199Z,6.33
2022-11-15T22:58:11.137Z,4.70
2022-11-15T23:01:02.476Z,4.30
2022-11-15T23:03:51.324Z,4.57
2022-11-15T23:06:40.104Z,4.20
2022-11-15T23:09:28.871Z,3.60
2022-11-15T23:12:35.446Z,3.83
2022-11-15T23:15:25.068Z,4.50
2022-11-15T23:18:16.476Z,5.97
2022-11-15T23:21:11.596Z,5.30
2022-11-15T23:23:59.352Z,3.80
2022-11-15T23:26:49.151Z,3.40
2022-11-15T23:29:52.400Z,4.43
2022-11-15T23:32:58.829Z,3.37
2022-11-15T23:35:56.244Z,4.10
2022-11-15T23:38:44.987Z,5.30
2022-11-15T23:41:33.745Z,3.30
2022-11-15T23:44:22.467Z,5.00
2022-11-15T23:47:11.958Z,6.17
2022-11-15T23:50:00.713Z,3.60
2022-11-15T23:52:50.775Z,3.77
2022-11-15T23:55:40.822Z,4.53
2022-11-15T23:58:29.782Z,4.10
